sensor_id;sensor_type;location;lat;lon;timestamp;pressure;altitude;pressure_sealevel;temperature;humidity
80308;BME280;69616;43.522;1.348;2023-05-21T12:06:36;99758.94;;;17.84;61.38
80308;BME280;69616;43.522;1.348;2023-05-21T12:09:02;99754.97;;;18.15;60.92
80308;BME280;69616;43.522;1.348;2023-05-21T12:11:28;99758.22;;;18.42;60.28
80308;BME280;69616;43.522;1.348;2023-05-21T12:13:54;99760.13;;;18.59;59.96
80308;BME280;69616;43.522;1.348;2023-05-21T12:16:21;99761.44;;;18.70;59.80
80308;BME280;69616;43.522;1.348;2023-05-21T12:18:46;99758.25;;;18.80;59.50
80308;BME280;69616;43.522;1.348;2023-05-21T12:21:12;99751.72;;;18.88;59.13
80308;BME280;69616;43.522;1.348;2023-05-21T12:23:37;99755.91;;;18.93;59.37
80308;BME280;69616;43.522;1.348;2023-05-21T12:26:03;99752.16;;;18.98;59.14
80308;BME280;69616;43.522;1.348;2023-05-21T12:28:29;99757.38;;;19.01;58.73
80308;BME280;69616;43.522;1.348;2023-05-21T12:30:54;99751.16;;;19.00;58.74
80308;BME280;69616;43.522;1.348;2023-05-21T12:33:20;99749.44;;;18.99;59.01
80308;BME280;69616;43.522;1.348;2023-05-21T12:35:47;99756.50;;;19.00;58.99
80308;BME280;69616;43.522;1.348;2023-05-21T12:38:14;99745.75;;;19.02;58.78
80308;BME280;69616;43.522;1.348;2023-05-21T12:40:39;99748.34;;;19.03;58.68
80308;BME280;69616;43.522;1.348;2023-05-21T12:43:07;99747.41;;;19.04;58.71
80308;BME280;69616;43.522;1.348;2023-05-21T12:45:32;99746.50;;;19.05;58.72
80308;BME280;69616;43.522;1.348;2023-05-21T12:48:01;99753.47;;;19.08;58.89
80308;BME280;69616;43.522;1.348;2023-05-21T12:50:26;99749.69;;;19.12;58.47
80308;BME280;69616;43.522;1.348;2023-05-21T12:52:56;99748.63;;;19.16;58.53
80308;BME280;69616;43.522;1.348;2023-05-21T12:55:23;99743.22;;;19.18;58.34
80308;BME280;69616;43.522;1.348;2023-05-21T12:58:00;99750.28;;;19.19;58.32
80308;BME280;69616;43.522;1.348;2023-05-21T13:00:27;99739.69;;;19.17;58.18
80308;BME280;69616;43.522;1.348;2023-05-21T13:02:52;99742.38;;;19.17;57.99
80308;BME280;69616;43.522;1.348;2023-05-21T13:05:20;99739.59;;;19.19;57.85
80308;BME280;69616;43.522;1.348;2023-05-21T13:07:46;99744.22;;;19.15;57.83
80308;BME280;69616;43.522;1.348;2023-05-21T13:10:12;99737.72;;;19.21;57.93
80308;BME280;69616;43.522;1.348;2023-05-21T13:12:38;99733.81;;;19.28;57.68
80308;BME280;69616;43.522;1.348;2023-05-21T13:15:04;99737.94;;;19.35;57.37
80308;BME280;69616;43.522;1.348;2023-05-21T13:17:32;99723.41;;;19.41;57.19
80308;BME280;69616;43.522;1.348;2023-05-21T13:20:13;99725.38;;;19.38;57.22
80308;BME280;69616;43.522;1.348;2023-05-21T13:22:49;99725.16;;;19.42;57.10
80308;BME280;69616;43.522;1.348;2023-05-21T13:25:18;99720.28;;;19.50;57.12
80308;BME280;69616;43.522;1.348;2023-05-21T13:27:46;99724.34;;;19.58;56.95
80308;BME280;69616;43.522;1.348;2023-05-21T13:30:12;99726.50;;;19.69;56.69
80308;BME280;69616;43.522;1.348;2023-05-21T13:32:38;99726.16;;;19.75;56.59
80308;BME280;69616;43.522;1.348;2023-05-21T13:35:04;99718.81;;;19.80;56.42
80308;BME280;69616;43.522;1.348;2023-05-21T13:37:30;99721.06;;;19.88;56.40
80308;BME280;69616;43.522;1.348;2023-05-21T13:39:56;99720.84;;;19.92;56.45
80308;BME280;69616;43.522;1.348;2023-05-21T13:42:22;99713.41;;;19.99;56.46
80308;BME280;69616;43.522;1.348;2023-05-21T13:44:47;99713.78;;;20.09;55.90
80308;BME280;69616;43.522;1.348;2023-05-21T13:47:13;99715.72;;;20.23;56.06
80308;BME280;69616;43.522;1.348;2023-05-21T13:49:39;99709.03;;;20.32;55.50
80308;BME280;69616;43.522;1.348;2023-05-21T13:52:06;99706.63;;;20.43;55.54
80308;BME280;69616;43.522;1.348;2023-05-21T13:54:32;99703.00;;;20.60;55.12
80308;BME280;69616;43.522;1.348;2023-05-21T13:56:57;99707.00;;;20.69;54.31
80308;BME280;69616;43.522;1.348;2023-05-21T13:59:23;99705.97;;;20.72;54.35
80308;BME280;69616;43.522;1.348;2023-05-21T14:01:48;99696.66;;;20.79;54.53
80308;BME280;69616;43.522;1.348;2023-05-21T14:04:16;99704.81;;;20.93;54.11
80308;BME280;69616;43.522;1.348;2023-05-21T14:06:42;99698.16;;;21.01;53.83
80308;BME280;69616;43.522;1.348;2023-05-21T14:09:07;99697.56;;;20.96;53.14
80308;BME280;69616;43.522;1.348;2023-05-21T14:11:33;99702.31;;;20.90;53.79
80308;BME280;69616;43.522;1.348;2023-05-21T14:13:59;99699.44;;;20.93;54.20
80308;BME280;69616;43.522;1.348;2023-05-21T14:16:25;99693.22;;;20.93;53.57
80308;BME280;69616;43.522;1.348;2023-05-21T14:18:55;99695.66;;;20.98;53.90
80308;BME280;69616;43.522;1.348;2023-05-21T14:21:21;99688.56;;;20.97;53.21
80308;BME280;69616;43.522;1.348;2023-05-21T14:23:47;99692.88;;;20.83;53.36
80308;BME280;69616;43.522;1.348;2023-05-21T14:26:13;99688.41;;;20.84;53.56
80308;BME280;69616;43.522;1.348;2023-05-21T14:28:39;99683.22;;;20.97;53.58
80308;BME280;69616;43.522;1.348;2023-05-21T14:31:05;99687.84;;;21.09;53.36
80308;BME280;69616;43.522;1.348;2023-05-21T14:33:30;99682.31;;;21.28;53.00
80308;BME280;69616;43.522;1.348;2023-05-21T14:35:57;99677.78;;;21.45;52.79
80308;BME280;69616;43.522;1.348;2023-05-21T14:38:22;99679.81;;;21.56;52.13
80308;BME280;69616;43.522;1.348;2023-05-21T14:40:48;99676.78;;;21.62;52.26
80308;BME280;69616;43.522;1.348;2023-05-21T14:43:13;99671.44;;;21.62;52.11
80308;BME280;69616;43.522;1.348;2023-05-21T14:45:38;99672.13;;;21.65;52.01
80308;BME280;69616;43.522;1.348;2023-05-21T14:48:04;99677.28;;;21.69;52.11
80308;BME280;69616;43.522;1.348;2023-05-21T14:50:35;99669.94;;;21.72;51.74
80308;BME280;69616;43.522;1.348;2023-05-21T14:53:08;99665.28;;;21.76;51.19
80308;BME280;69616;43.522;1.348;2023-05-21T14:55:35;99664.81;;;21.84;51.92
80308;BME280;69616;43.522;1.348;2023-05-21T14:58:01;99666.44;;;21.86;51.72
80308;BME280;69616;43.522;1.348;2023-05-21T15:00:28;99668.84;;;21.91;51.57
80308;BME280;69616;43.522;1.348;2023-05-21T15:02:53;99661.84;;;21.88;51.56
80308;BME280;69616;43.522;1.348;2023-05-21T15:05:19;99659.44;;;21.84;51.59
80308;BME280;69616;43.522;1.348;2023-05-21T15:07:44;99663.94;;;21.83;51.44
80308;BME280;69616;43.522;1.348;2023-05-21T15:10:10;99655.25;;;21.94;51.15
80308;BME280;69616;43.522;1.348;2023-05-21T15:12:36;99652.66;;;22.07;51.09
80308;BME280;69616;43.522;1.348;2023-05-21T15:15:02;99650.34;;;22.15;50.77
80308;BME280;69616;43.522;1.348;2023-05-21T15:17:27;99650.28;;;22.31;50.51
80308;BME280;69616;43.522;1.348;2023-05-21T15:19:54;99641.06;;;22.50;50.29
80308;BME280;69616;43.522;1.348;2023-05-21T15:22:19;99650.06;;;22.63;49.91
80308;BME280;69616;43.522;1.348;2023-05-21T15:24:45;99647.66;;;22.73;49.88
80308;BME280;69616;43.522;1.348;2023-05-21T15:27:10;99645.22;;;22.83;49.56
80308;BME280;69616;43.522;1.348;2023-05-21T15:29:37;99634.84;;;22.91;49.40
80308;BME280;69616;43.522;1.348;2023-05-21T15:32:02;99640.97;;;22.93;49.17
80308;BME280;69616;43.522;1.348;2023-05-21T15:34:32;99642.41;;;22.99;49.01
80308;BME280;69616;43.522;1.348;2023-05-21T15:36:58;99638.63;;;23.02;48.89
80308;BME280;69616;43.522;1.348;2023-05-21T15:39:23;99635.72;;;22.92;48.81
80308;BME280;69616;43.522;1.348;2023-05-21T15:41:49;99643.63;;;22.66;49.18
80308;BME280;69616;43.522;1.348;2023-05-21T15:44:16;99636.28;;;22.41;49.40
80308;BME280;69616;43.522;1.348;2023-05-21T15:46:41;99646.34;;;22.22;49.99
80308;BME280;69616;43.522;1.348;2023-05-21T15:49:07;99648.84;;;22.26;49.97
80308;BME280;69616;43.522;1.348;2023-05-21T15:51:32;99641.72;;;22.39;49.76
80308;BME280;69616;43.522;1.348;2023-05-21T15:53:58;99632.63;;;22.42;49.32
80308;BME280;69616;43.522;1.348;2023-05-21T15:56:23;99640.31;;;22.48;49.33
80308;BME280;69616;43.522;1.348;2023-05-21T15:58:49;99643.34;;;22.42;49.50
80308;BME280;69616;43.522;1.348;2023-05-21T16:01:15;99642.22;;;22.31;49.79
80308;BME280;69616;43.522;1.348;2023-05-21T16:03:40;99647.31;;;22.21;50.00
80308;BME280;69616;43.522;1.348;2023-05-21T16:06:05;99636.19;;;22.13;50.08
80308;BME280;69616;43.522;1.348;2023-05-21T16:08:32;99633.22;;;22.03;50.35
80308;BME280;69616;43.522;1.348;2023-05-21T16:10:58;99639.16;;;21.94;50.34
80308;BME280;69616;43.522;1.348;2023-05-21T16:13:23;99643.38;;;21.98;50.31
80308;BME280;69616;43.522;1.348;2023-05-21T16:15:49;99639.34;;;22.05;50.39
80308;BME280;69616;43.522;1.348;2023-05-21T16:18:14;99637.44;;;22.07;50.21
80308;BME280;69616;43.522;1.348;2023-05-21T16:20:40;99629.78;;;22.01;50.02
80308;BME280;69616;43.522;1.348;2023-05-21T16:23:05;99634.56;;;21.96;50.31
80308;BME280;69616;43.522;1.348;2023-05-21T16:25:31;99637.81;;;21.87;50.25
80308;BME280;69616;43.522;1.348;2023-05-21T16:27:57;99638.28;;;21.79;50.07
80308;BME280;69616;43.522;1.348;2023-05-21T16:30:23;99627.94;;;21.73;50.73
80308;BME280;69616;43.522;1.348;2023-05-21T16:32:48;99637.59;;;21.75;50.83
80308;BME280;69616;43.522;1.348;2023-05-21T16:35:14;99634.47;;;21.83;50.56
80308;BME280;69616;43.522;1.348;2023-05-21T16:37:39;99632.34;;;21.88;50.35
80308;BME280;69616;43.522;1.348;2023-05-21T16:40:05;99636.75;;;21.89;50.19
80308;BME280;69616;43.522;1.348;2023-05-21T16:42:31;99632.16;;;21.91;50.27
80308;BME280;69616;43.522;1.348;2023-05-21T16:44:56;99633.72;;;21.96;50.40
80308;BME280;69616;43.522;1.348;2023-05-21T16:47:21;99627.47;;;21.95;50.15
80308;BME280;69616;43.522;1.348;2023-05-21T16:49:47;99629.59;;;21.90;50.50
80308;BME280;69616;43.522;1.348;2023-05-21T16:52:12;99631.50;;;21.88;50.05
80308;BME280;69616;43.522;1.348;2023-05-21T16:54:38;99626.34;;;21.85;50.07
80308;BME280;69616;43.522;1.348;2023-05-21T16:57:03;99627.56;;;21.79;50.41
80308;BME280;69616;43.522;1.348;2023-05-21T16:59:28;99620.75;;;21.73;50.33
80308;BME280;69616;43.522;1.348;2023-05-21T17:01:54;99618.19;;;21.56;50.21
80308;BME280;69616;43.522;1.348;2023-05-21T17:04:19;99618.19;;;21.41;50.67
80308;BME280;69616;43.522;1.348;2023-05-21T17:06:44;99611.28;;;21.37;51.12
80308;BME280;69616;43.522;1.348;2023-05-21T17:09:10;99620.88;;;21.41;51.12
80308;BME280;69616;43.522;1.348;2023-05-21T17:11:35;99614.38;;;21.45;50.92
80308;BME280;69616;43.522;1.348;2023-05-21T17:14:01;99612.44;;;21.47;51.08
80308;BME280;69616;43.522;1.348;2023-05-21T17:16:26;99613.97;;;21.51;50.78
80308;BME280;69616;43.522;1.348;2023-05-21T17:18:51;99611.03;;;21.56;50.42
80308;BME280;69616;43.522;1.348;2023-05-21T17:21:17;99613.53;;;21.59;50.84
80308;BME280;69616;43.522;1.348;2023-05-21T17:23:43;99608.94;;;21.61;50.68
80308;BME280;69616;43.522;1.348;2023-05-21T17:26:08;99611.63;;;21.61;50.71
80308;BME280;69616;43.522;1.348;2023-05-21T17:28:35;99611.63;;;21.61;50.02
80308;BME280;69616;43.522;1.348;2023-05-21T17:31:01;99615.34;;;21.59;50.11
80308;BME280;69616;43.522;1.348;2023-05-21T17:33:27;99618.97;;;21.58;50.25
80308;BME280;69616;43.522;1.348;2023-05-21T17:35:52;99617.09;;;21.60;50.14
80308;BME280;69616;43.522;1.348;2023-05-21T17:38:20;99628.84;;;21.57;50.28
80308;BME280;69616;43.522;1.348;2023-05-21T17:40:45;99617.63;;;21.50;50.08
80308;BME280;69616;43.522;1.348;2023-05-21T17:43:12;99626.22;;;21.41;50.26
80308;BME280;69616;43.522;1.348;2023-05-21T17:45:38;99624.75;;;21.35;50.04
80308;BME280;69616;43.522;1.348;2023-05-21T17:48:03;99624.94;;;21.32;50.52
80308;BME280;69616;43.522;1.348;2023-05-21T17:50:29;99625.97;;;21.30;50.87
80308;BME280;69616;43.522;1.348;2023-05-21T17:52:54;99628.25;;;21.21;50.84
80308;BME280;69616;43.522;1.348;2023-05-21T17:55:20;99631.13;;;21.18;51.19
80308;BME280;69616;43.522;1.348;2023-05-21T17:57:45;99623.28;;;21.15;51.48
80308;BME280;69616;43.522;1.348;2023-05-21T18:00:11;99636.91;;;21.11;51.15
80308;BME280;69616;43.522;1.348;2023-05-21T18:02:36;99632.69;;;21.06;51.60
80308;BME280;69616;43.522;1.348;2023-05-21T18:05:02;99639.25;;;21.01;51.66
80308;BME280;69616;43.522;1.348;2023-05-21T18:07:27;99642.13;;;20.98;51.75
80308;BME280;69616;43.522;1.348;2023-05-21T18:09:52;99643.25;;;20.93;51.66
80308;BME280;69616;43.522;1.348;2023-05-21T18:12:18;99643.44;;;20.90;52.29
80308;BME280;69616;43.522;1.348;2023-05-21T18:14:43;99646.44;;;20.84;52.30
80308;BME280;69616;43.522;1.348;2023-05-21T18:17:09;99660.94;;;20.80;52.43
80308;BME280;69616;43.522;1.348;2023-05-21T18:19:34;99657.81;;;20.72;52.29
80308;BME280;69616;43.522;1.348;2023-05-21T18:22:00;99659.00;;;20.66;52.58
80308;BME280;69616;43.522;1.348;2023-05-21T18:24:25;99659.44;;;20.58;52.83
80308;BME280;69616;43.522;1.348;2023-05-21T18:26:50;99660.72;;;20.51;53.32
80308;BME280;69616;43.522;1.348;2023-05-21T18:29:16;99667.38;;;20.44;53.68
80308;BME280;69616;43.522;1.348;2023-05-21T18:31:44;99666.78;;;20.39;54.12
80308;BME280;69616;43.522;1.348;2023-05-21T18:34:10;99668.63;;;20.36;54.26
80308;BME280;69616;43.522;1.348;2023-05-21T18:36:35;99672.53;;;20.31;54.44
80308;BME280;69616;43.522;1.348;2023-05-21T18:39:07;99671.03;;;20.25;54.89
80308;BME280;69616;43.522;1.348;2023-05-21T18:41:33;99673.13;;;20.20;54.75
80308;BME280;69616;43.522;1.348;2023-05-21T18:43:58;99679.66;;;20.14;54.99
80308;BME280;69616;43.522;1.348;2023-05-21T18:46:26;99677.03;;;20.13;54.95
80308;BME280;69616;43.522;1.348;2023-05-21T18:48:52;99677.19;;;20.10;54.88
80308;BME280;69616;43.522;1.348;2023-05-21T18:51:17;99677.38;;;20.06;55.28
80308;BME280;69616;43.522;1.348;2023-05-21T18:53:43;99686.56;;;20.01;55.26
80308;BME280;69616;43.522;1.348;2023-05-21T18:56:08;99694.06;;;19.94;55.24
80308;BME280;69616;43.522;1.348;2023-05-21T18:58:34;99687.97;;;19.90;55.62
80308;BME280;69616;43.522;1.348;2023-05-21T19:01:00;99690.81;;;19.87;55.68
80308;BME280;69616;43.522;1.348;2023-05-21T19:03:25;99699.06;;;19.83;55.67
80308;BME280;69616;43.522;1.348;2023-05-21T19:05:52;99696.56;;;19.79;55.81
80308;BME280;69616;43.522;1.348;2023-05-21T19:08:17;99696.88;;;19.73;56.23
80308;BME280;69616;43.522;1.348;2023-05-21T19:10:42;99698.94;;;19.68;56.39
80308;BME280;69616;43.522;1.348;2023-05-21T19:13:08;99698.38;;;19.61;56.45
80308;BME280;69616;43.522;1.348;2023-05-21T19:15:33;99702.16;;;19.57;56.72
80308;BME280;69616;43.522;1.348;2023-05-21T19:17:59;99704.88;;;19.56;56.70
80308;BME280;69616;43.522;1.348;2023-05-21T19:20:25;99702.44;;;19.51;57.06
80308;BME280;69616;43.522;1.348;2023-05-21T19:22:52;99708.66;;;19.51;57.16
80308;BME280;69616;43.522;1.348;2023-05-21T19:25:18;99708.81;;;19.48;57.36
80308;BME280;69616;43.522;1.348;2023-05-21T19:27:43;99708.97;;;19.45;57.41
80308;BME280;69616;43.522;1.348;2023-05-21T19:30:09;99719.00;;;19.40;57.26
80308;BME280;69616;43.522;1.348;2023-05-21T19:32:34;99718.19;;;19.38;57.74
80308;BME280;69616;43.522;1.348;2023-05-21T19:35:00;99714.91;;;19.33;57.88
80308;BME280;69616;43.522;1.348;2023-05-21T19:37:26;99712.53;;;19.27;57.93
80308;BME280;69616;43.522;1.348;2023-05-21T19:39:51;99714.44;;;19.25;58.19
80308;BME280;69616;43.522;1.348;2023-05-21T19:42:17;99727.03;;;19.21;58.37
80308;BME280;69616;43.522;1.348;2023-05-21T19:44:44;99726.34;;;19.17;58.08
80308;BME280;69616;43.522;1.348;2023-05-21T19:47:09;99722.88;;;19.15;58.48
80308;BME280;69616;43.522;1.348;2023-05-21T19:49:35;99724.03;;;19.10;58.84
80308;BME280;69616;43.522;1.348;2023-05-21T19:52:00;99726.94;;;19.05;58.88
80308;BME280;69616;43.522;1.348;2023-05-21T19:54:26;99727.34;;;18.96;59.14
80308;BME280;69616;43.522;1.348;2023-05-21T19:56:52;99735.56;;;18.91;59.25
80308;BME280;69616;43.522;1.348;2023-05-21T19:59:17;99743.06;;;18.83;59.44
80308;BME280;69616;43.522;1.348;2023-05-21T20:01:43;99749.41;;;18.80;59.54
80308;BME280;69616;43.522;1.348;2023-05-21T20:04:09;99742.50;;;18.76;59.70
80308;BME280;69616;43.522;1.348;2023-05-21T20:06:34;99747.97;;;18.73;60.02
80308;BME280;69616;43.522;1.348;2023-05-21T20:09:00;99753.44;;;18.70;60.11
80308;BME280;69616;43.522;1.348;2023-05-21T20:11:26;99752.72;;;18.66;59.89
80308;BME280;69616;43.522;1.348;2023-05-21T20:13:52;99749.31;;;18.62;60.20
80308;BME280;69616;43.522;1.348;2023-05-21T20:16:18;99745.94;;;18.59;60.17
80308;BME280;69616;43.522;1.348;2023-05-21T20:18:46;99757.53;;;18.58;60.48
80308;BME280;69616;43.522;1.348;2023-05-21T20:21:13;99766.59;;;18.54;60.57
80308;BME280;69616;43.522;1.348;2023-05-21T20:23:38;99765.75;;;18.53;60.48
80308;BME280;69616;43.522;1.348;2023-05-21T20:26:04;99773.78;;;18.51;60.62
80308;BME280;69616;43.522;1.348;2023-05-21T20:28:29;99774.81;;;18.49;60.60
80308;BME280;69616;43.522;1.348;2023-05-21T20:30:55;99778.47;;;18.46;60.62
80308;BME280;69616;43.522;1.348;2023-05-21T20:33:28;99767.06;;;18.43;60.96
80308;BME280;69616;43.522;1.348;2023-05-21T20:35:54;99779.75;;;18.38;60.90
80308;BME280;69616;43.522;1.348;2023-05-21T20:38:19;99773.63;;;18.35;61.08
80308;BME280;69616;43.522;1.348;2023-05-21T20:40:45;99774.56;;;18.34;61.15
80308;BME280;69616;43.522;1.348;2023-05-21T20:43:11;99776.44;;;18.32;61.14
80308;BME280;69616;43.522;1.348;2023-05-21T20:45:38;99782.84;;;18.28;61.12
80308;BME280;69616;43.522;1.348;2023-05-21T20:48:06;99778.44;;;18.27;61.17
80308;BME280;69616;43.522;1.348;2023-05-21T20:50:34;99781.28;;;18.22;61.10
80308;BME280;69616;43.522;1.348;2023-05-21T20:53:00;99786.81;;;18.18;61.61
80308;BME280;69616;43.522;1.348;2023-05-21T20:55:26;99791.34;;;18.16;61.53
80308;BME280;69616;43.522;1.348;2023-05-21T20:57:51;99782.63;;;18.12;61.68
80308;BME280;69616;43.522;1.348;2023-05-21T21:00:17;99789.88;;;18.08;61.95
80308;BME280;69616;43.522;1.348;2023-05-21T21:02:43;99784.69;;;18.05;61.96
80308;BME280;69616;43.522;1.348;2023-05-21T21:05:09;99790.16;;;18.02;61.96
80308;BME280;69616;43.522;1.348;2023-05-21T21:07:37;99779.59;;;17.99;62.07
80308;BME280;69616;43.522;1.348;2023-05-21T21:10:04;99783.13;;;18.00;62.07
80308;BME280;69616;43.522;1.348;2023-05-21T21:12:29;99787.66;;;17.98;62.13
80308;BME280;69616;43.522;1.348;2023-05-21T21:14:55;99785.91;;;17.97;62.21
80308;BME280;69616;43.522;1.348;2023-05-21T21:17:21;99786.91;;;17.94;62.13
80308;BME280;69616;43.522;1.348;2023-05-21T21:19:46;99785.38;;;17.88;62.28
80308;BME280;69616;43.522;1.348;2023-05-21T21:22:13;99781.03;;;17.86;62.62
80308;BME280;69616;43.522;1.348;2023-05-21T21:24:38;99788.22;;;17.84;62.49
80308;BME280;69616;43.522;1.348;2023-05-21T21:27:04;99778.50;;;17.83;62.59
80308;BME280;69616;43.522;1.348;2023-05-21T21:29:30;99777.63;;;17.82;62.58
80308;BME280;69616;43.522;1.348;2023-05-21T21:31:56;99773.31;;;17.79;62.75
80308;BME280;69616;43.522;1.348;2023-05-21T21:34:21;99779.72;;;17.75;62.75
80308;BME280;69616;43.522;1.348;2023-05-21T21:36:48;99778.78;;;17.76;62.79
80308;BME280;69616;43.522;1.348;2023-05-21T21:39:15;99776.25;;;17.73;62.92
80308;BME280;69616;43.522;1.348;2023-05-21T21:41:42;99779.91;;;17.71;63.20
80308;BME280;69616;43.522;1.348;2023-05-21T21:44:07;99781.69;;;17.70;63.20
80308;BME280;69616;43.522;1.348;2023-05-21T21:46:33;99779.94;;;17.69;63.08
80308;BME280;69616;43.522;1.348;2023-05-21T21:48:58;99778.22;;;17.68;63.14
80308;BME280;69616;43.522;1.348;2023-05-21T21:51:24;99784.59;;;17.64;63.18
80308;BME280;69616;43.522;1.348;2023-05-21T21:53:49;99788.31;;;17.60;63.46
80308;BME280;69616;43.522;1.348;2023-05-21T21:56:15;99785.84;;;17.55;63.67
80308;BME280;69616;43.522;1.348;2023-05-21T21:58:40;99795.69;;;17.53;63.75
80308;BME280;69616;43.522;1.348;2023-05-21T22:01:06;99793.03;;;17.53;63.81
80308;BME280;69616;43.522;1.348;2023-05-21T22:03:31;99796.56;;;17.54;63.83
80308;BME280;69616;43.522;1.348;2023-05-21T22:06:00;99796.63;;;17.52;64.00
80308;BME280;69616;43.522;1.348;2023-05-21T22:08:26;99793.91;;;17.54;63.89
80308;BME280;69616;43.522;1.348;2023-05-21T22:10:53;99797.50;;;17.53;63.94
80308;BME280;69616;43.522;1.348;2023-05-21T22:13:18;99795.91;;;17.48;64.13
80308;BME280;69616;43.522;1.348;2023-05-21T22:15:44;99796.00;;;17.45;64.23
80308;BME280;69616;43.522;1.348;2023-05-21T22:18:10;99802.19;;;17.46;64.42
80308;BME280;69616;43.522;1.348;2023-05-21T22:20:36;99802.19;;;17.46;64.43
80308;BME280;69616;43.522;1.348;2023-05-21T22:23:02;99800.34;;;17.48;64.40
80308;BME280;69616;43.522;1.348;2023-05-21T22:25:28;99808.38;;;17.46;64.56
80308;BME280;69616;43.522;1.348;2023-05-21T22:27:53;99810.09;;;17.47;64.61
80308;BME280;69616;43.522;1.348;2023-05-21T22:30:19;99798.59;;;17.47;64.63
80308;BME280;69616;43.522;1.348;2023-05-21T22:32:45;99806.72;;;17.44;64.44
80308;BME280;69616;43.522;1.348;2023-05-21T22:35:11;99803.16;;;17.43;64.60
80308;BME280;69616;43.522;1.348;2023-05-21T22:37:37;99807.66;;;17.43;64.84
80308;BME280;69616;43.522;1.348;2023-05-21T22:40:03;99811.25;;;17.42;64.79
80308;BME280;69616;43.522;1.348;2023-05-21T22:42:33;99813.91;;;17.42;64.90
80308;BME280;69616;43.522;1.348;2023-05-21T22:44:58;99805.03;;;17.41;64.94
80308;BME280;69616;43.522;1.348;2023-05-21T22:47:23;99805.97;;;17.40;64.95
80308;BME280;69616;43.522;1.348;2023-05-21T22:49:50;99814.97;;;17.38;65.01
80308;BME280;69616;43.522;1.348;2023-05-21T22:52:18;99818.59;;;17.35;65.22
80308;BME280;69616;43.522;1.348;2023-05-21T22:54:46;99819.53;;;17.34;65.37
80308;BME280;69616;43.522;1.348;2023-05-21T22:57:11;99815.03;;;17.34;65.57
80308;BME280;69616;43.522;1.348;2023-05-21T22:59:37;99810.59;;;17.35;65.58
80308;BME280;69616;43.522;1.348;2023-05-21T23:02:03;99825.69;;;17.34;65.56
80308;BME280;69616;43.522;1.348;2023-05-21T23:04:30;99819.56;;;17.32;65.66
80308;BME280;69616;43.522;1.348;2023-05-21T23:06:57;99816.06;;;17.32;65.63
80308;BME280;69616;43.522;1.348;2023-05-21T23:09:22;99816.06;;;17.32;65.66
80308;BME280;69616;43.522;1.348;2023-05-21T23:11:47;99811.72;;;17.29;65.67
80308;BME280;69616;43.522;1.348;2023-05-21T23:14:13;99810.84;;;17.29;65.74
80308;BME280;69616;43.522;1.348;2023-05-21T23:16:38;99819.69;;;17.29;65.83
80308;BME280;69616;43.522;1.348;2023-05-21T23:19:08;99823.22;;;17.30;65.77
80308;BME280;69616;43.522;1.348;2023-05-21T23:21:34;99823.44;;;17.24;66.01
80308;BME280;69616;43.522;1.348;2023-05-21T23:23:59;99818.38;;;17.17;66.21
80308;BME280;69616;43.522;1.348;2023-05-21T23:26:25;99823.81;;;17.14;66.36
80308;BME280;69616;43.522;1.348;2023-05-21T23:28:50;99816.75;;;17.13;66.36
80308;BME280;69616;43.522;1.348;2023-05-21T23:31:15;99825.69;;;17.12;66.58
80308;BME280;69616;43.522;1.348;2023-05-21T23:33:41;99819.47;;;17.12;66.42
80308;BME280;69616;43.522;1.348;2023-05-21T23:36:08;99816.94;;;17.08;66.58
80308;BME280;69616;43.522;1.348;2023-05-21T23:38:33;99814.41;;;17.05;66.90
80308;BME280;69616;43.522;1.348;2023-05-21T23:40:59;99816.31;;;17.02;67.11
80308;BME280;69616;43.522;1.348;2023-05-21T23:43:24;99812.81;;;17.00;67.20
80308;BME280;69616;43.522;1.348;2023-05-21T23:45:50;99814.63;;;16.99;67.18
80308;BME280;69616;43.522;1.348;2023-05-21T23:48:15;99809.28;;;17.01;67.03
80308;BME280;69616;43.522;1.348;2023-05-21T23:50:40;99811.84;;;17.02;67.12
80308;BME280;69616;43.522;1.348;2023-05-21T23:53:06;99809.16;;;17.04;66.95
80308;BME280;69616;43.522;1.348;2023-05-21T23:55:31;99803.75;;;17.05;67.09
80308;BME280;69616;43.522;1.348;2023-05-21T23:57:56;99803.72;;;17.07;67.01
